sensor_id;sensor_type;location;lat;lon;timestamp;pressure;altitude;pressure_sealevel;temperature;humidity
41306;BME280;27051;50.376;19.152;2023-07-08T00:00:14;98808.83;;;17.10;51.16
41306;BME280;27051;50.376;19.152;2023-07-08T00:03:01;98808.30;;;16.96;51.35
41306;BME280;27051;50.376;19.152;2023-07-08T00:05:27;98805.01;;;16.88;51.55
41306;BME280;27051;50.376;19.152;2023-07-08T00:07:53;98805.58;;;16.86;51.43
41306;BME280;27051;50.376;19.152;2023-07-08T00:10:23;98807.36;;;16.80;51.63
41306;BME280;27051;50.376;19.152;2023-07-08T00:12:52;98805.85;;;16.87;51.81
41306;BME280;27051;50.376;19.152;2023-07-08T00:15:21;98806.05;;;16.86;51.50
41306;BME280;27051;50.376;19.152;2023-07-08T00:17:47;98808.13;;;16.68;51.68
41306;BME280;27051;50.376;19.152;2023-07-08T00:20:17;98817.82;;;16.59;52.00
41306;BME280;27051;50.376;19.152;2023-07-08T00:22:45;98814.85;;;16.58;51.82
41306;BME280;27051;50.376;19.152;2023-07-08T00:25:11;98810.91;;;16.49;52.05
41306;BME280;27051;50.376;19.152;2023-07-08T00:27:40;98808.55;;;16.43;52.25
41306;BME280;27051;50.376;19.152;2023-07-08T00:30:28;98810.23;;;16.50;52.31
41306;BME280;27051;50.376;19.152;2023-07-08T00:32:55;98809.84;;;16.55;52.12
41306;BME280;27051;50.376;19.152;2023-07-08T00:38:24;98805.77;;;16.44;52.40
41306;BME280;27051;50.376;19.152;2023-07-08T00:43:30;98809.50;;;16.32;52.62
41306;BME280;27051;50.376;19.152;2023-07-08T00:46:18;98805.23;;;16.43;52.71
41306;BME280;27051;50.376;19.152;2023-07-08T00:48:48;98803.48;;;16.55;52.51
41306;BME280;27051;50.376;19.152;2023-07-08T00:51:18;98801.02;;;16.47;52.73
41306;BME280;27051;50.376;19.152;2023-07-08T00:53:48;98802.55;;;16.38;52.59
41306;BME280;27051;50.376;19.152;2023-07-08T00:56:31;98806.21;;;16.17;52.81
41306;BME280;27051;50.376;19.152;2023-07-08T00:59:03;98808.63;;;15.90;53.41
41306;BME280;27051;50.376;19.152;2023-07-08T01:01:32;98810.92;;;15.81;53.97
41306;BME280;27051;50.376;19.152;2023-07-08T01:04:13;98810.08;;;15.84;54.39
41306;BME280;27051;50.376;19.152;2023-07-08T01:06:44;98802.57;;;15.77;54.09
41306;BME280;27051;50.376;19.152;2023-07-08T01:09:14;98805.63;;;15.86;54.26
41306;BME280;27051;50.376;19.152;2023-07-08T01:11:41;98804.74;;;16.01;54.32
41306;BME280;27051;50.376;19.152;2023-07-08T01:14:10;98806.19;;;16.00;54.20
41306;BME280;27051;50.376;19.152;2023-07-08T01:16:38;98801.18;;;15.81;54.30
41306;BME280;27051;50.376;19.152;2023-07-08T01:19:06;98800.96;;;15.86;54.68
41306;BME280;27051;50.376;19.152;2023-07-08T01:21:39;98796.78;;;15.98;54.83
41306;BME280;27051;50.376;19.152;2023-07-08T01:24:10;98791.70;;;16.07;54.95
41306;BME280;27051;50.376;19.152;2023-07-08T01:26:40;98794.23;;;16.15;54.98
41306;BME280;27051;50.376;19.152;2023-07-08T01:29:17;98793.69;;;16.22;55.05
41306;BME280;27051;50.376;19.152;2023-07-08T01:31:43;98795.98;;;16.12;54.99
41306;BME280;27051;50.376;19.152;2023-07-08T01:34:12;98793.37;;;16.10;55.27
41306;BME280;27051;50.376;19.152;2023-07-08T01:36:40;98791.70;;;16.07;55.13
41306;BME280;27051;50.376;19.152;2023-07-08T01:39:17;98797.17;;;16.03;55.27
41306;BME280;27051;50.376;19.152;2023-07-08T01:41:44;98792.54;;;15.95;55.42
41306;BME280;27051;50.376;19.152;2023-07-08T01:44:28;98793.81;;;15.97;55.57
41306;BME280;27051;50.376;19.152;2023-07-08T01:46:58;98791.71;;;15.97;55.51
41306;BME280;27051;50.376;19.152;2023-07-08T01:49:28;98786.13;;;15.83;55.72
41306;BME280;27051;50.376;19.152;2023-07-08T01:52:03;98785.95;;;15.65;55.57
41306;BME280;27051;50.376;19.152;2023-07-08T01:54:30;98785.02;;;15.58;55.97
41306;BME280;27051;50.376;19.152;2023-07-08T01:57:06;98795.91;;;15.67;56.27
41306;BME280;27051;50.376;19.152;2023-07-08T01:59:32;98794.48;;;15.79;56.26
41306;BME280;27051;50.376;19.152;2023-07-08T02:01:58;98789.73;;;15.90;56.46
41306;BME280;27051;50.376;19.152;2023-07-08T02:04:25;98788.90;;;16.03;56.44
41306;BME280;27051;50.376;19.152;2023-07-08T02:06:57;98792.88;;;15.85;55.80
41306;BME280;27051;50.376;19.152;2023-07-08T02:09:24;98792.41;;;15.67;56.28
41306;BME280;27051;50.376;19.152;2023-07-08T02:11:51;98793.91;;;15.65;56.58
41306;BME280;27051;50.376;19.152;2023-07-08T02:14:17;98794.58;;;15.76;56.60
41306;BME280;27051;50.376;19.152;2023-07-08T02:16:45;98791.77;;;15.58;56.33
41306;BME280;27051;50.376;19.152;2023-07-08T02:19:14;98789.70;;;15.49;56.53
41306;BME280;27051;50.376;19.152;2023-07-08T02:21:43;98789.54;;;15.33;56.75
41306;BME280;27051;50.376;19.152;2023-07-08T02:24:17;98790.61;;;15.40;57.19
41306;BME280;27051;50.376;19.152;2023-07-08T02:26:43;98791.98;;;15.51;57.23
41306;BME280;27051;50.376;19.152;2023-07-08T02:29:09;98795.05;;;15.49;56.95
41306;BME280;27051;50.376;19.152;2023-07-08T02:31:35;98792.98;;;15.43;56.97
41306;BME280;27051;50.376;19.152;2023-07-08T02:34:01;98794.53;;;15.46;57.00
41306;BME280;27051;50.376;19.152;2023-07-08T02:36:28;98798.56;;;15.44;56.83
41306;BME280;27051;50.376;19.152;2023-07-08T02:38:54;98796.06;;;15.42;56.85
41306;BME280;27051;50.376;19.152;2023-07-08T02:41:20;98795.89;;;15.45;57.17
41306;BME280;27051;50.376;19.152;2023-07-08T02:43:46;98801.59;;;15.47;56.88
41306;BME280;27051;50.376;19.152;2023-07-08T02:46:12;98799.93;;;15.31;56.83
41306;BME280;27051;50.376;19.152;2023-07-08T02:48:41;98803.24;;;15.20;57.24
41306;BME280;27051;50.376;19.152;2023-07-08T02:51:07;98801.42;;;15.26;57.39
41306;BME280;27051;50.376;19.152;2023-07-08T02:53:33;98804.59;;;15.29;57.40
41306;BME280;27051;50.376;19.152;2023-07-08T02:56:02;98806.22;;;15.39;57.34
41306;BME280;27051;50.376;19.152;2023-07-08T02:58:28;98803.17;;;15.46;57.36
41306;BME280;27051;50.376;19.152;2023-07-08T03:00:56;98805.83;;;15.43;57.13
41306;BME280;27051;50.376;19.152;2023-07-08T03:03:22;98811.41;;;15.23;57.40
41306;BME280;27051;50.376;19.152;2023-07-08T03:06:05;98811.50;;;15.09;57.47
41306;BME280;27051;50.376;19.152;2023-07-08T03:08:31;98812.38;;;15.04;57.82
41306;BME280;27051;50.376;19.152;2023-07-08T03:11:05;98810.83;;;14.97;57.91
41306;BME280;27051;50.376;19.152;2023-07-08T03:13:34;98815.10;;;14.91;58.02
41306;BME280;27051;50.376;19.152;2023-07-08T03:16:04;98816.92;;;14.90;58.30
41306;BME280;27051;50.376;19.152;2023-07-08T03:18:38;98819.09;;;15.00;58.53
41306;BME280;27051;50.376;19.152;2023-07-08T03:21:04;98817.26;;;15.11;58.49
41306;BME280;27051;50.376;19.152;2023-07-08T03:23:30;98813.55;;;15.07;58.30
41306;BME280;27051;50.376;19.152;2023-07-08T03:25:56;98813.83;;;14.96;58.16
41306;BME280;27051;50.376;19.152;2023-07-08T03:28:22;98813.81;;;14.86;58.60
41306;BME280;27051;50.376;19.152;2023-07-08T03:30:52;98814.45;;;14.87;58.83
41306;BME280;27051;50.376;19.152;2023-07-08T03:33:18;98814.70;;;14.91;58.92
41306;BME280;27051;50.376;19.152;2023-07-08T03:35:47;98810.95;;;14.92;58.96
41306;BME280;27051;50.376;19.152;2023-07-08T03:38:13;98812.16;;;14.94;59.10
41306;BME280;27051;50.376;19.152;2023-07-08T03:40:40;98813.12;;;15.06;59.28
41306;BME280;27051;50.376;19.152;2023-07-08T03:43:06;98813.74;;;15.13;59.28
41306;BME280;27051;50.376;19.152;2023-07-08T03:45:32;98814.77;;;15.11;59.29
41306;BME280;27051;50.376;19.152;2023-07-08T03:47:58;98808.73;;;15.20;59.68
41306;BME280;27051;50.376;19.152;2023-07-08T03:50:28;98814.98;;;15.36;59.77
41306;BME280;27051;50.376;19.152;2023-07-08T03:52:58;98815.48;;;15.45;59.46
41306;BME280;27051;50.376;19.152;2023-07-08T03:55:24;98812.92;;;15.49;59.47
41306;BME280;27051;50.376;19.152;2023-07-08T03:57:50;98815.52;;;15.51;59.81
41306;BME280;27051;50.376;19.152;2023-07-08T04:00:16;98812.80;;;15.57;59.57
41306;BME280;27051;50.376;19.152;2023-07-08T04:02:43;98812.52;;;15.66;59.81
41306;BME280;27051;50.376;19.152;2023-07-08T04:05:13;98809.83;;;15.73;60.01
41306;BME280;27051;50.376;19.152;2023-07-08T04:07:40;98805.85;;;15.90;60.05
41306;BME280;27051;50.376;19.152;2023-07-08T04:10:07;98805.15;;;16.02;59.96
41306;BME280;27051;50.376;19.152;2023-07-08T04:12:33;98803.46;;;16.10;60.04
41306;BME280;27051;50.376;19.152;2023-07-08T04:15:02;98802.13;;;16.18;60.10
41306;BME280;27051;50.376;19.152;2023-07-08T04:17:29;98801.94;;;16.29;60.22
41306;BME280;27051;50.376;19.152;2023-07-08T04:19:55;98798.84;;;16.33;60.38
41306;BME280;27051;50.376;19.152;2023-07-08T04:22:21;98797.48;;;16.45;60.48
41306;BME280;27051;50.376;19.152;2023-07-08T04:24:47;98794.64;;;16.59;60.36
41306;BME280;27051;50.376;19.152;2023-07-08T04:27:15;98795.70;;;16.71;60.18
41306;BME280;27051;50.376;19.152;2023-07-08T04:29:43;98793.95;;;16.78;60.35
41306;BME280;27051;50.376;19.152;2023-07-08T04:32:09;98792.99;;;16.89;60.29
41306;BME280;27051;50.376;19.152;2023-07-08T04:34:38;98795.69;;;16.98;60.36
41306;BME280;27051;50.376;19.152;2023-07-08T04:37:04;98799.52;;;17.09;60.34
41306;BME280;27051;50.376;19.152;2023-07-08T04:39:31;98797.75;;;17.22;60.20
41306;BME280;27051;50.376;19.152;2023-07-08T04:41:57;98794.85;;;17.35;60.37
41306;BME280;27051;50.376;19.152;2023-07-08T04:44:34;98793.45;;;17.46;59.87
41306;BME280;27051;50.376;19.152;2023-07-08T04:47:00;98790.20;;;17.58;58.98
41306;BME280;27051;50.376;19.152;2023-07-08T04:49:29;98788.96;;;17.66;58.65
41306;BME280;27051;50.376;19.152;2023-07-08T04:51:58;98788.66;;;17.73;58.48
41306;BME280;27051;50.376;19.152;2023-07-08T04:54:24;98789.08;;;17.80;58.32
41306;BME280;27051;50.376;19.152;2023-07-08T04:56:50;98789.40;;;17.86;58.21
41306;BME280;27051;50.376;19.152;2023-07-08T04:59:18;98789.79;;;17.93;58.70
41306;BME280;27051;50.376;19.152;2023-07-08T05:01:45;98787.77;;;18.00;58.83
41306;BME280;27051;50.376;19.152;2023-07-08T05:04:13;98785.44;;;18.08;58.93
41306;BME280;27051;50.376;19.152;2023-07-08T05:06:40;98784.60;;;18.16;58.77
41306;BME280;27051;50.376;19.152;2023-07-08T05:09:06;98784.77;;;18.24;58.58
41306;BME280;27051;50.376;19.152;2023-07-08T05:11:33;98781.19;;;18.32;58.51
41306;BME280;27051;50.376;19.152;2023-07-08T05:14:00;98783.44;;;18.39;58.26
41306;BME280;27051;50.376;19.152;2023-07-08T05:16:26;98780.31;;;18.45;58.52
41306;BME280;27051;50.376;19.152;2023-07-08T05:18:58;98781.20;;;18.50;57.81
41306;BME280;27051;50.376;19.152;2023-07-08T05:21:24;98783.59;;;18.55;57.55
41306;BME280;27051;50.376;19.152;2023-07-08T05:23:50;98786.34;;;18.59;58.16
41306;BME280;27051;50.376;19.152;2023-07-08T05:26:17;98786.59;;;18.69;58.08
41306;BME280;27051;50.376;19.152;2023-07-08T05:29:04;98786.55;;;18.80;57.85
41306;BME280;27051;50.376;19.152;2023-07-08T05:31:29;98783.05;;;18.91;57.35
41306;BME280;27051;50.376;19.152;2023-07-08T05:33:55;98783.46;;;18.94;56.73
41306;BME280;27051;50.376;19.152;2023-07-08T05:36:21;98781.77;;;18.95;56.77
41306;BME280;27051;50.376;19.152;2023-07-08T05:38:48;98782.59;;;19.00;56.60
41306;BME280;27051;50.376;19.152;2023-07-08T05:41:19;98781.02;;;19.10;56.91
41306;BME280;27051;50.376;19.152;2023-07-08T05:43:45;98785.13;;;19.20;56.73
41306;BME280;27051;50.376;19.152;2023-07-08T05:46:11;98784.71;;;19.29;56.46
41306;BME280;27051;50.376;19.152;2023-07-08T05:48:45;98787.66;;;19.41;56.82
41306;BME280;27051;50.376;19.152;2023-07-08T05:51:11;98790.53;;;19.54;56.83
41306;BME280;27051;50.376;19.152;2023-07-08T05:53:48;98791.61;;;19.65;56.90
41306;BME280;27051;50.376;19.152;2023-07-08T05:56:17;98794.70;;;19.75;56.66
41306;BME280;27051;50.376;19.152;2023-07-08T05:58:43;98793.59;;;19.87;56.57
41306;BME280;27051;50.376;19.152;2023-07-08T06:01:09;98794.04;;;20.00;56.56
41306;BME280;27051;50.376;19.152;2023-07-08T06:03:37;98796.24;;;20.10;56.58
41306;BME280;27051;50.376;19.152;2023-07-08T06:06:03;98800.79;;;20.19;56.56
41306;BME280;27051;50.376;19.152;2023-07-08T06:08:29;98797.94;;;20.31;56.68
41306;BME280;27051;50.376;19.152;2023-07-08T06:10:57;98796.64;;;20.43;56.54
41306;BME280;27051;50.376;19.152;2023-07-08T06:13:23;98794.87;;;20.57;56.57
41306;BME280;27051;50.376;19.152;2023-07-08T06:15:49;98797.94;;;20.67;55.94
41306;BME280;27051;50.376;19.152;2023-07-08T06:18:15;98799.75;;;20.78;55.61
41306;BME280;27051;50.376;19.152;2023-07-08T06:20:41;98799.19;;;20.84;54.41
41306;BME280;27051;50.376;19.152;2023-07-08T06:23:08;98805.36;;;20.91;54.03
41306;BME280;27051;50.376;19.152;2023-07-08T06:25:34;98803.23;;;21.03;54.19
41306;BME280;27051;50.376;19.152;2023-07-08T06:28:02;98800.50;;;21.18;54.28
41306;BME280;27051;50.376;19.152;2023-07-08T06:30:37;98800.48;;;21.28;53.77
41306;BME280;27051;50.376;19.152;2023-07-08T06:33:04;98802.98;;;21.37;53.32
41306;BME280;27051;50.376;19.152;2023-07-08T06:35:29;98802.25;;;21.50;53.38
41306;BME280;27051;50.376;19.152;2023-07-08T06:37:56;98804.02;;;21.63;53.12
41306;BME280;27051;50.376;19.152;2023-07-08T06:40:22;98799.45;;;21.75;52.44
41306;BME280;27051;50.376;19.152;2023-07-08T06:42:48;98802.68;;;21.85;52.15
41306;BME280;27051;50.376;19.152;2023-07-08T06:45:14;98802.17;;;21.96;52.06
41306;BME280;27051;50.376;19.152;2023-07-08T06:47:41;98803.37;;;22.08;52.03
41306;BME280;27051;50.376;19.152;2023-07-08T06:50:07;98806.13;;;22.23;51.86
41306;BME280;27051;50.376;19.152;2023-07-08T06:52:37;98808.16;;;22.37;51.61
41306;BME280;27051;50.376;19.152;2023-07-08T06:55:07;98809.52;;;22.45;51.17
41306;BME280;27051;50.376;19.152;2023-07-08T06:57:35;98813.80;;;22.58;51.19
41306;BME280;27051;50.376;19.152;2023-07-08T07:00:01;98809.83;;;22.69;50.68
41306;BME280;27051;50.376;19.152;2023-07-08T07:02:27;98811.14;;;22.83;49.65
41306;BME280;27051;50.376;19.152;2023-07-08T07:04:54;98805.18;;;22.91;48.83
41306;BME280;27051;50.376;19.152;2023-07-08T07:07:20;98801.38;;;23.00;48.92
41306;BME280;27051;50.376;19.152;2023-07-08T07:09:46;98799.15;;;23.12;48.71
41306;BME280;27051;50.376;19.152;2023-07-08T07:12:12;98799.58;;;23.24;49.06
41306;BME280;27051;50.376;19.152;2023-07-08T07:14:39;98798.84;;;23.37;48.30
41306;BME280;27051;50.376;19.152;2023-07-08T07:17:05;98800.77;;;23.47;48.17
41306;BME280;27051;50.376;19.152;2023-07-08T07:19:31;98803.69;;;23.59;47.68
41306;BME280;27051;50.376;19.152;2023-07-08T07:21:57;98803.59;;;23.69;47.34
41306;BME280;27051;50.376;19.152;2023-07-08T07:24:23;98804.23;;;23.76;46.53
41306;BME280;27051;50.376;19.152;2023-07-08T07:26:50;98803.20;;;23.83;46.79
41306;BME280;27051;50.376;19.152;2023-07-08T07:29:17;98803.20;;;23.90;46.66
41306;BME280;27051;50.376;19.152;2023-07-08T07:31:43;98803.52;;;23.96;46.12
41306;BME280;27051;50.376;19.152;2023-07-08T07:34:10;98802.02;;;24.03;46.34
41306;BME280;27051;50.376;19.152;2023-07-08T07:36:36;98804.19;;;24.11;45.62
41306;BME280;27051;50.376;19.152;2023-07-08T07:39:02;98803.27;;;24.15;45.59
41306;BME280;27051;50.376;19.152;2023-07-08T07:41:28;98805.09;;;24.25;45.55
41306;BME280;27051;50.376;19.152;2023-07-08T07:43:54;98804.55;;;24.35;45.30
41306;BME280;27051;50.376;19.152;2023-07-08T07:46:21;98804.05;;;24.49;45.47
41306;BME280;27051;50.376;19.152;2023-07-08T07:48:47;98802.57;;;24.65;45.16
41306;BME280;27051;50.376;19.152;2023-07-08T07:51:13;98801.12;;;24.78;44.65
41306;BME280;27051;50.376;19.152;2023-07-08T07:53:39;98802.91;;;24.88;44.53
41306;BME280;27051;50.376;19.152;2023-07-08T07:56:05;98804.84;;;24.99;44.11
41306;BME280;27051;50.376;19.152;2023-07-08T07:58:32;98807.80;;;25.06;43.35
41306;BME280;27051;50.376;19.152;2023-07-08T08:00:58;98809.23;;;25.15;42.74
41306;BME280;27051;50.376;19.152;2023-07-08T08:03:24;98809.23;;;25.20;41.86
41306;BME280;27051;50.376;19.152;2023-07-08T08:05:51;98806.73;;;25.28;41.63
41306;BME280;27051;50.376;19.152;2023-07-08T08:08:17;98804.28;;;25.37;41.45
41306;BME280;27051;50.376;19.152;2023-07-08T08:10:46;98803.99;;;25.49;41.42
41306;BME280;27051;50.376;19.152;2023-07-08T08:13:12;98805.83;;;25.60;41.10
41306;BME280;27051;50.376;19.152;2023-07-08T08:15:38;98805.20;;;25.71;40.44
41306;BME280;27051;50.376;19.152;2023-07-08T08:18:04;98805.61;;;25.83;40.56
41306;BME280;27051;50.376;19.152;2023-07-08T08:20:30;98808.38;;;25.99;39.62
41306;BME280;27051;50.376;19.152;2023-07-08T08:22:56;98808.07;;;26.09;39.72
41306;BME280;27051;50.376;19.152;2023-07-08T08:25:24;98807.64;;;26.18;38.69
41306;BME280;27051;50.376;19.152;2023-07-08T08:27:50;98809.28;;;26.27;38.75
41306;BME280;27051;50.376;19.152;2023-07-08T08:30:16;98807.04;;;26.38;38.80
41306;BME280;27051;50.376;19.152;2023-07-08T08:32:42;98805.77;;;26.53;38.06
41306;BME280;27051;50.376;19.152;2023-07-08T08:35:08;98808.16;;;26.66;36.77
41306;BME280;27051;50.376;19.152;2023-07-08T08:37:34;98806.33;;;26.77;36.67
41306;BME280;27051;50.376;19.152;2023-07-08T08:40:00;98801.10;;;26.84;36.14
41306;BME280;27051;50.376;19.152;2023-07-08T08:42:34;98798.67;;;26.93;36.00
41306;BME280;27051;50.376;19.152;2023-07-08T08:45:02;98800.09;;;27.06;35.48
41306;BME280;27051;50.376;19.152;2023-07-08T08:47:39;98801.21;;;27.18;35.16
41306;BME280;27051;50.376;19.152;2023-07-08T08:52:45;98796.27;;;27.45;34.28
41306;BME280;27051;50.376;19.152;2023-07-08T08:55:13;98790.94;;;27.55;33.68
41306;BME280;27051;50.376;19.152;2023-07-08T09:00:53;98788.38;;;27.78;33.75
41306;BME280;27051;50.376;19.152;2023-07-08T09:03:26;98782.58;;;27.94;33.72
41306;BME280;27051;50.376;19.152;2023-07-08T09:05:58;98784.59;;;28.09;33.50
41306;BME280;27051;50.376;19.152;2023-07-08T09:08:34;98786.52;;;28.24;32.73
41306;BME280;27051;50.376;19.152;2023-07-08T09:13:48;98786.86;;;28.51;32.44
41306;BME280;27051;50.376;19.152;2023-07-08T09:19:15;98792.79;;;28.93;31.59
41306;BME280;27051;50.376;19.152;2023-07-08T09:21:49;98792.52;;;29.04;31.65
41306;BME280;27051;50.376;19.152;2023-07-08T09:24:29;98792.04;;;29.27;31.24
41306;BME280;27051;50.376;19.152;2023-07-08T09:26:58;98784.84;;;29.54;30.95
41306;BME280;27051;50.376;19.152;2023-07-08T09:29:26;98784.23;;;29.76;30.07
41306;BME280;27051;50.376;19.152;2023-07-08T09:31:52;98782.16;;;30.21;29.63
41306;BME280;27051;50.376;19.152;2023-07-08T09:34:22;98778.88;;;30.70;28.92
41306;BME280;27051;50.376;19.152;2023-07-08T09:36:50;98777.02;;;31.09;28.24
41306;BME280;27051;50.376;19.152;2023-07-08T09:39:20;98777.92;;;31.48;27.42
41306;BME280;27051;50.376;19.152;2023-07-08T09:41:48;98775.73;;;31.94;28.29
41306;BME280;27051;50.376;19.152;2023-07-08T09:44:22;98775.12;;;32.47;26.92
41306;BME280;27051;50.376;19.152;2023-07-08T09:46:48;98781.41;;;32.63;26.18
41306;BME280;27051;50.376;19.152;2023-07-08T09:49:28;98774.95;;;32.97;26.14
41306;BME280;27051;50.376;19.152;2023-07-08T09:51:54;98772.09;;;33.26;25.83
41306;BME280;27051;50.376;19.152;2023-07-08T09:54:23;98770.77;;;33.48;25.53
41306;BME280;27051;50.376;19.152;2023-07-08T09:57:09;98768.21;;;33.81;25.20
41306;BME280;27051;50.376;19.152;2023-07-08T09:59:53;98771.23;;;34.14;24.63
41306;BME280;27051;50.376;19.152;2023-07-08T10:05:12;98758.27;;;34.85;24.32
41306;BME280;27051;50.376;19.152;2023-07-08T10:07:39;98758.21;;;35.23;24.31
41306;BME280;27051;50.376;19.152;2023-07-08T10:10:08;98756.55;;;35.58;23.42
41306;BME280;27051;50.376;19.152;2023-07-08T10:12:38;98754.05;;;35.79;23.26
41306;BME280;27051;50.376;19.152;2023-07-08T10:15:15;98752.46;;;36.03;23.52
41306;BME280;27051;50.376;19.152;2023-07-08T10:17:44;98751.36;;;36.43;22.97
41306;BME280;27051;50.376;19.152;2023-07-08T10:20:12;98752.46;;;36.75;22.87
41306;BME280;27051;50.376;19.152;2023-07-08T10:25:30;98750.45;;;37.28;21.65
41306;BME280;27051;50.376;19.152;2023-07-08T10:36:19;98746.45;;;38.08;20.45
41306;BME280;27051;50.376;19.152;2023-07-08T10:39:03;98748.30;;;38.37;19.87
41306;BME280;27051;50.376;19.152;2023-07-08T10:41:43;98743.92;;;38.57;19.62
41306;BME280;27051;50.376;19.152;2023-07-08T10:44:31;98746.98;;;38.82;19.79
41306;BME280;27051;50.376;19.152;2023-07-08T10:47:10;98742.63;;;39.13;19.23
41306;BME280;27051;50.376;19.152;2023-07-08T10:49:48;98735.02;;;39.11;18.91
41306;BME280;27051;50.376;19.152;2023-07-08T10:57:39;98726.52;;;40.03;18.04
41306;BME280;27051;50.376;19.152;2023-07-08T11:00:29;98722.27;;;40.36;17.91
41306;BME280;27051;50.376;19.152;2023-07-08T11:03:14;98721.38;;;40.69;17.56
41306;BME280;27051;50.376;19.152;2023-07-08T11:05:55;98714.79;;;40.99;17.42
41306;BME280;27051;50.376;19.152;2023-07-08T11:08:27;98709.55;;;41.26;16.71
41306;BME280;27051;50.376;19.152;2023-07-08T11:13:34;98710.88;;;41.69;16.37
41306;BME280;27051;50.376;19.152;2023-07-08T11:16:15;98708.48;;;42.16;16.19
41306;BME280;27051;50.376;19.152;2023-07-08T11:18:52;98701.73;;;42.36;16.33
41306;BME280;27051;50.376;19.152;2023-07-08T11:21:29;98705.18;;;42.61;16.10
41306;BME280;27051;50.376;19.152;2023-07-08T11:26:36;98702.75;;;42.99;15.51
41306;BME280;27051;50.376;19.152;2023-07-08T11:29:13;98699.97;;;43.19;15.64
41306;BME280;27051;50.376;19.152;2023-07-08T11:31:41;98689.61;;;43.68;15.17
41306;BME280;27051;50.376;19.152;2023-07-08T11:34:08;98690.73;;;44.02;14.82
41306;BME280;27051;50.376;19.152;2023-07-08T11:36:36;98690.70;;;44.26;14.37
41306;BME280;27051;50.376;19.152;2023-07-08T11:39:27;98689.42;;;44.53;14.31
41306;BME280;27051;50.376;19.152;2023-07-08T11:42:25;98690.52;;;44.88;14.28
41306;BME280;27051;50.376;19.152;2023-07-08T11:44:55;98685.08;;;45.45;14.32
41306;BME280;27051;50.376;19.152;2023-07-08T11:49:52;98680.99;;;46.24;13.78
41306;BME280;27051;50.376;19.152;2023-07-08T11:52:21;98681.90;;;46.43;13.34
41306;BME280;27051;50.376;19.152;2023-07-08T11:54:56;98681.88;;;46.80;13.12
41306;BME280;27051;50.376;19.152;2023-07-08T11:57:34;98681.51;;;47.25;13.25
41306;BME280;27051;50.376;19.152;2023-07-08T12:00:13;98675.00;;;47.47;12.71
41306;BME280;27051;50.376;19.152;2023-07-08T12:03:04;98680.25;;;47.81;12.44
41306;BME280;27051;50.376;19.152;2023-07-08T12:05:42;98677.70;;;48.25;12.28
41306;BME280;27051;50.376;19.152;2023-07-08T12:08:14;98679.98;;;48.62;11.91
41306;BME280;27051;50.376;19.152;2023-07-08T12:10:46;98675.64;;;49.01;11.42
41306;BME280;27051;50.376;19.152;2023-07-08T12:13:17;98671.57;;;49.46;11.24
41306;BME280;27051;50.376;19.152;2023-07-08T12:15:43;98671.46;;;49.96;10.92
41306;BME280;27051;50.376;19.152;2023-07-08T12:18:16;98668.00;;;50.40;10.82
41306;BME280;27051;50.376;19.152;2023-07-08T12:20:46;98662.02;;;50.79;10.58
41306;BME280;27051;50.376;19.152;2023-07-08T12:23:18;98664.38;;;50.82;9.86
41306;BME280;27051;50.376;19.152;2023-07-08T12:25:45;98662.39;;;50.73;10.07
41306;BME280;27051;50.376;19.152;2023-07-08T12:28:11;98661.46;;;51.06;10.13
41306;BME280;27051;50.376;19.152;2023-07-08T12:30:42;98663.88;;;51.39;9.65
41306;BME280;27051;50.376;19.152;2023-07-08T12:33:24;98660.69;;;51.55;9.57
41306;BME280;27051;50.376;19.152;2023-07-08T12:35:52;98656.36;;;51.69;9.21
41306;BME280;27051;50.376;19.152;2023-07-08T12:38:22;98652.32;;;51.59;9.18
41306;BME280;27051;50.376;19.152;2023-07-08T12:40:50;98647.02;;;51.69;8.95
41306;BME280;27051;50.376;19.152;2023-07-08T12:43:16;98651.69;;;51.68;9.04
41306;BME280;27051;50.376;19.152;2023-07-08T12:45:43;98648.09;;;51.87;8.82
41306;BME280;27051;50.376;19.152;2023-07-08T12:48:09;98649.95;;;52.00;8.45
41306;BME280;27051;50.376;19.152;2023-07-08T12:50:35;98644.80;;;52.13;8.69
41306;BME280;27051;50.376;19.152;2023-07-08T12:53:04;98642.95;;;52.09;8.57
41306;BME280;27051;50.376;19.152;2023-07-08T12:55:30;98640.56;;;51.79;8.35
41306;BME280;27051;50.376;19.152;2023-07-08T12:57:57;98638.25;;;51.84;8.83
41306;BME280;27051;50.376;19.152;2023-07-08T13:00:30;98632.39;;;52.19;8.66
41306;BME280;27051;50.376;19.152;2023-07-08T13:02:59;98636.79;;;52.54;8.88
41306;BME280;27051;50.376;19.152;2023-07-08T13:05:29;98632.20;;;52.62;8.71
41306;BME280;27051;50.376;19.152;2023-07-08T13:07:56;98630.52;;;52.65;8.81
41306;BME280;27051;50.376;19.152;2023-07-08T13:10:24;98625.94;;;52.66;8.41
41306;BME280;27051;50.376;19.152;2023-07-08T13:12:57;98623.89;;;52.54;8.44
41306;BME280;27051;50.376;19.152;2023-07-08T13:15:28;98627.13;;;52.64;8.39
41306;BME280;27051;50.376;19.152;2023-07-08T13:17:56;98627.50;;;52.88;8.63
41306;BME280;27051;50.376;19.152;2023-07-08T13:20:24;98623.30;;;53.23;8.48
41306;BME280;27051;50.376;19.152;2023-07-08T13:22:53;98622.71;;;53.39;8.63
41306;BME280;27051;50.376;19.152;2023-07-08T13:25:20;98612.74;;;53.24;8.86
41306;BME280;27051;50.376;19.152;2023-07-08T13:27:56;98617.25;;;53.15;8.64
41306;BME280;27051;50.376;19.152;2023-07-08T13:30:26;98620.40;;;53.13;8.44
41306;BME280;27051;50.376;19.152;2023-07-08T13:33:01;98622.02;;;53.37;8.54
41306;BME280;27051;50.376;19.152;2023-07-08T13:35:37;98617.30;;;53.45;8.34
41306;BME280;27051;50.376;19.152;2023-07-08T13:38:04;98617.65;;;53.10;8.25
41306;BME280;27051;50.376;19.152;2023-07-08T13:40:31;98615.20;;;53.12;8.62
41306;BME280;27051;50.376;19.152;2023-07-08T13:42:57;98610.76;;;53.05;8.20
41306;BME280;27051;50.376;19.152;2023-07-08T13:45:30;98612.05;;;52.84;8.54